Time;durP1;ratioP1;P1;durP2;ratioP2;P2;SDS_P1;SDS_P2;PMS_P1;PMS_P2;Temp;Humidity;BMP_temperature;BMP_pressure;BME280_temperature;BME280_humidity;BME280_pressure;Samples;Min_cycle;Max_cycle;Signal;HPM_P1;HPM_P2
2024/01/09 00:00:12;;;;;;;3.80;2.40;;;;;;;;;;5036243;28;20209;-71
2024/01/09 00:02:38;;;;;;;5.43;2.95;;;;;;;;;;5035700;28;20044;-70
2024/01/09 00:05:04;;;;;;;5.70;2.65;;;;;;;;;;5019001;28;20043;-73
2024/01/09 00:07:30;;;;;;;4.45;2.50;;;;;;;;;;5034455;28;20055;-72
2024/01/09 00:09:57;;;;;;;8.13;2.10;;;;;;;;;;5035271;28;20524;-70
2024/01/09 00:12:23;;;;;;;3.65;2.67;;;;;;;;;;5036418;28;20048;-70
2024/01/09 00:14:49;;;;;;;3.05;2.30;;;;;;;;;;5035424;28;20199;-71
2024/01/09 00:17:15;;;;;;;4.20;2.70;;;;;;;;;;5037230;28;20291;-71
2024/01/09 00:19:41;;;;;;;4.25;2.40;;;;;;;;;;5018076;28;20196;-71
2024/01/09 00:22:07;;;;;;;3.80;2.00;;;;;;;;;;5037642;28;20048;-70
2024/01/09 00:24:33;;;;;;;3.63;2.65;;;;;;;;;;5036282;28;20759;-70
2024/01/09 00:26:59;;;;;;;5.70;2.78;;;;;;;;;;5034429;28;20105;-71
2024/01/09 00:29:25;;;;;;;4.93;2.60;;;;;;;;;;5034775;28;20037;-70
2024/01/09 00:31:51;;;;;;;4.07;2.10;;;;;;;;;;5036590;28;20190;-71
2024/01/09 00:34:18;;;;;;;3.95;2.30;;;;;;;;;;5036942;28;20109;-71
2024/01/09 00:36:44;;;;;;;4.68;2.00;;;;;;;;;;5034765;28;20303;-70
2024/01/09 00:39:11;;;;;;;4.80;2.28;;;;;;;;;;5035115;28;20044;-70
2024/01/09 00:41:37;;;;;;;4.15;2.22;;;;;;;;;;5034613;28;20048;-70
2024/01/09 00:44:03;;;;;;;4.70;2.25;;;;;;;;;;5035423;28;20123;-71
2024/01/09 00:46:30;;;;;;;3.00;1.92;;;;;;;;;;5035866;28;20489;-70
2024/01/09 00:48:56;;;;;;;4.72;2.03;;;;;;;;;;5034639;28;20110;-70
2024/01/09 00:51:22;;;;;;;3.70;2.28;;;;;;;;;;5036209;28;20214;-69
2024/01/09 00:53:48;;;;;;;3.63;2.15;;;;;;;;;;5017890;28;20057;-70
2024/01/09 00:56:15;;;;;;;5.95;2.75;;;;;;;;;;5035593;28;20358;-71
2024/01/09 00:58:41;;;;;;;3.17;1.83;;;;;;;;;;5035813;28;20535;-70
2024/01/09 01:01:08;;;;;;;4.75;2.63;;;;;;;;;;5038026;28;20049;-71
2024/01/09 01:03:34;;;;;;;3.38;2.15;;;;;;;;;;5040460;28;20318;-72
2024/01/09 01:06:00;;;;;;;2.42;1.83;;;;;;;;;;5042904;28;20133;-72
2024/01/09 01:08:26;;;;;;;4.47;2.30;;;;;;;;;;5008415;28;20318;-70
2024/01/09 01:10:52;;;;;;;2.35;1.80;;;;;;;;;;5042818;28;20199;-71
2024/01/09 01:13:18;;;;;;;3.15;2.08;;;;;;;;;;5041821;28;20170;-71
2024/01/09 01:15:45;;;;;;;3.42;2.30;;;;;;;;;;5040979;28;20202;-71
2024/01/09 01:18:11;;;;;;;3.35;2.22;;;;;;;;;;5042919;28;20451;-70
2024/01/09 01:20:37;;;;;;;6.80;3.03;;;;;;;;;;5025324;28;20048;-71
2024/01/09 01:23:03;;;;;;;3.97;2.20;;;;;;;;;;5043165;28;20116;-71
2024/01/09 01:25:29;;;;;;;5.90;2.47;;;;;;;;;;5046435;28;20589;-70
2024/01/09 01:27:55;;;;;;;4.80;2.28;;;;;;;;;;5042358;28;20136;-70
2024/01/09 01:30:21;;;;;;;5.25;2.15;;;;;;;;;;5044909;28;20462;-69
2024/01/09 01:32:47;;;;;;;6.47;2.15;;;;;;;;;;5042014;28;20045;-70
2024/01/09 01:35:14;;;;;;;3.65;1.80;;;;;;;;;;5039448;28;20083;-70
2024/01/09 01:37:40;;;;;;;3.63;1.98;;;;;;;;;;5041811;28;20287;-71
2024/01/09 01:40:06;;;;;;;3.50;2.15;;;;;;;;;;5041545;28;20767;-71
2024/01/09 01:42:32;;;;;;;5.45;2.38;;;;;;;;;;5042613;28;20199;-71
2024/01/09 01:44:58;;;;;;;3.28;2.00;;;;;;;;;;5042919;28;20226;-71
2024/01/09 01:47:25;;;;;;;4.72;2.08;;;;;;;;;;5040909;28;20260;-70
2024/01/09 01:49:51;;;;;;;2.55;1.83;;;;;;;;;;5039235;28;20692;-69
2024/01/09 01:52:17;;;;;;;6.78;2.42;;;;;;;;;;5042159;28;20231;-71
2024/01/09 01:54:44;;;;;;;3.60;1.83;;;;;;;;;;5040653;28;20075;-70
2024/01/09 01:57:10;;;;;;;6.38;2.28;;;;;;;;;;5057865;28;20048;-69
2024/01/09 01:59:40;;;;;;;3.92;2.45;;;;;;;;;;5058657;28;20048;-70
2024/01/09 02:02:07;;;;;;;3.72;2.30;;;;;;;;;;5044175;28;20048;-70
2024/01/09 02:04:33;;;;;;;3.60;2.00;;;;;;;;;;5024305;28;20049;-71
2024/01/09 02:07:02;;;;;;;4.00;2.15;;;;;;;;;;5043806;28;20084;-71
2024/01/09 02:09:28;;;;;;;3.97;2.17;;;;;;;;;;5043098;28;20049;-71
2024/01/09 02:11:55;;;;;;;5.53;2.40;;;;;;;;;;5042527;28;20351;-71
2024/01/09 02:14:21;;;;;;;3.85;2.20;;;;;;;;;;5041317;28;20736;-71
2024/01/09 02:16:47;;;;;;;3.28;1.95;;;;;;;;;;5039627;28;20045;-71
2024/01/09 02:19:13;;;;;;;2.47;2.00;;;;;;;;;;5022257;28;20555;-71
2024/01/09 02:21:39;;;;;;;6.00;2.20;;;;;;;;;;5022047;28;20048;-71
2024/01/09 02:24:05;;;;;;;4.10;2.35;;;;;;;;;;5037954;28;20112;-71
2024/01/09 02:26:35;;;;;;;3.70;2.15;;;;;;;;;;5038422;28;20040;-71
2024/01/09 02:29:07;;;;;;;4.75;2.58;;;;;;;;;;5038482;28;20282;-71
2024/01/09 02:31:34;;;;;;;4.18;2.63;;;;;;;;;;5022289;28;20114;-70
2024/01/09 02:34:01;;;;;;;3.47;2.10;;;;;;;;;;5037464;28;20172;-70
2024/01/09 02:36:27;;;;;;;4.45;2.00;;;;;;;;;;5036849;28;20179;-70
2024/01/09 02:38:53;;;;;;;4.53;2.45;;;;;;;;;;5020736;28;20546;-70
2024/01/09 02:41:19;;;;;;;3.88;2.15;;;;;;;;;;5038382;28;20205;-70
2024/01/09 02:43:45;;;;;;;3.85;1.92;;;;;;;;;;5053608;28;20138;-69
2024/01/09 02:46:11;;;;;;;3.50;2.03;;;;;;;;;;5038745;28;20041;-70
2024/01/09 02:48:37;;;;;;;6.88;2.47;;;;;;;;;;5036830;28;20576;-70
2024/01/09 02:51:03;;;;;;;3.10;2.17;;;;;;;;;;5037078;28;20045;-70
2024/01/09 02:53:29;;;;;;;3.85;2.10;;;;;;;;;;5038262;28;20043;-71
2024/01/09 02:55:56;;;;;;;9.90;2.50;;;;;;;;;;5037701;28;20124;-71
2024/01/09 02:58:22;;;;;;;3.25;1.80;;;;;;;;;;5037033;28;20171;-70
2024/01/09 03:00:48;;;;;;;2.67;1.77;;;;;;;;;;5036836;28;20419;-70
2024/01/09 03:03:14;;;;;;;4.05;2.08;;;;;;;;;;5035984;28;20051;-71
2024/01/09 03:05:40;;;;;;;3.65;2.08;;;;;;;;;;5038854;28;20063;-71
2024/01/09 03:08:06;;;;;;;3.75;1.83;;;;;;;;;;5036822;28;20041;-70
2024/01/09 03:10:32;;;;;;;5.93;2.28;;;;;;;;;;5038693;28;20129;-71
2024/01/09 03:12:59;;;;;;;3.75;2.03;;;;;;;;;;5038782;28;20403;-70
2024/01/09 03:15:25;;;;;;;5.57;2.42;;;;;;;;;;5037832;28;20508;-71
2024/01/09 03:17:51;;;;;;;3.65;1.75;;;;;;;;;;5038977;28;20231;-70
2024/01/09 03:20:17;;;;;;;3.65;2.08;;;;;;;;;;5037171;28;20052;-70
2024/01/09 03:22:43;;;;;;;4.35;2.10;;;;;;;;;;5038265;28;20182;-70
2024/01/09 03:25:10;;;;;;;4.18;2.15;;;;;;;;;;5038584;28;20518;-71
2024/01/09 03:27:36;;;;;;;4.20;2.40;;;;;;;;;;5035404;28;20393;-70
2024/01/09 03:30:02;;;;;;;4.05;2.10;;;;;;;;;;5039870;28;20119;-70
2024/01/09 03:32:28;;;;;;;3.80;1.98;;;;;;;;;;5037017;28;20574;-70
2024/01/09 03:34:54;;;;;;;3.58;2.10;;;;;;;;;;5036622;28;20607;-71
2024/01/09 03:37:21;;;;;;;4.55;2.25;;;;;;;;;;5036716;28;20179;-72
2024/01/09 03:39:47;;;;;;;4.20;2.20;;;;;;;;;;5035285;28;20257;-70
2024/01/09 03:42:13;;;;;;;3.50;2.22;;;;;;;;;;5018546;28;20112;-70
2024/01/09 03:44:39;;;;;;;3.17;2.10;;;;;;;;;;5035570;28;20041;-71
2024/01/09 03:47:05;;;;;;;4.53;2.05;;;;;;;;;;5036534;28;20370;-71
2024/01/09 03:49:31;;;;;;;3.97;2.35;;;;;;;;;;5036317;28;20044;-71
2024/01/09 03:51:58;;;;;;;4.13;2.83;;;;;;;;;;5037157;28;20052;-70
2024/01/09 03:54:24;;;;;;;3.20;1.70;;;;;;;;;;5036961;28;20050;-71
2024/01/09 03:56:50;;;;;;;3.25;2.35;;;;;;;;;;5036778;28;20075;-68
2024/01/09 03:59:16;;;;;;;5.20;2.35;;;;;;;;;;5035565;28;20698;-70
2024/01/09 04:01:42;;;;;;;2.78;2.00;;;;;;;;;;5038505;28;20040;-69
2024/01/09 04:04:09;;;;;;;4.82;1.90;;;;;;;;;;5036161;28;20102;-70
2024/01/09 04:06:43;;;;;;;3.63;1.90;;;;;;;;;;5038072;28;20128;-70
2024/01/09 04:09:10;;;;;;;3.35;1.73;;;;;;;;;;5034960;28;20056;-70
2024/01/09 04:11:41;;;;;;;2.67;1.70;;;;;;;;;;5033413;28;20177;-69
2024/01/09 04:14:07;;;;;;;4.18;2.30;;;;;;;;;;5035335;28;20672;-70
2024/01/09 04:16:34;;;;;;;3.58;2.28;;;;;;;;;;5035048;28;20139;-68
2024/01/09 04:19:00;;;;;;;3.08;1.80;;;;;;;;;;5035680;28;20041;-70
2024/01/09 04:21:26;;;;;;;3.88;1.80;;;;;;;;;;5019375;28;20199;-70
2024/01/09 04:23:52;;;;;;;3.70;1.83;;;;;;;;;;5037376;28;20040;-70
2024/01/09 04:26:18;;;;;;;4.00;2.25;;;;;;;;;;5034911;28;20476;-69
2024/01/09 04:28:44;;;;;;;3.55;2.28;;;;;;;;;;5036124;28;20179;-69
2024/01/09 04:31:10;;;;;;;5.78;2.13;;;;;;;;;;5037348;28;20045;-69
2024/01/09 04:33:36;;;;;;;3.65;2.13;;;;;;;;;;5035233;28;20389;-70
2024/01/09 04:36:03;;;;;;;5.03;2.05;;;;;;;;;;5019437;28;20064;-72
2024/01/09 04:38:29;;;;;;;3.13;1.88;;;;;;;;;;5036538;28;20128;-69
2024/01/09 04:40:55;;;;;;;2.78;2.03;;;;;;;;;;5035395;28;20044;-70
2024/01/09 04:43:21;;;;;;;5.65;2.63;;;;;;;;;;5018694;28;20059;-70
2024/01/09 04:45:47;;;;;;;4.55;2.75;;;;;;;;;;5035449;28;20040;-69
2024/01/09 04:48:13;;;;;;;5.15;2.92;;;;;;;;;;5036568;28;20693;-70
2024/01/09 04:50:39;;;;;;;4.80;2.47;;;;;;;;;;5051891;28;20158;-70
2024/01/09 04:53:06;;;;;;;3.78;1.92;;;;;;;;;;5031777;28;20044;-70
2024/01/09 04:55:32;;;;;;;4.22;2.28;;;;;;;;;;5035921;28;20041;-70
2024/01/09 04:57:58;;;;;;;3.97;2.15;;;;;;;;;;5018550;28;20037;-70
2024/01/09 05:00:24;;;;;;;4.45;2.15;;;;;;;;;;5037647;28;20272;-69
2024/01/09 05:02:52;;;;;;;6.50;2.20;;;;;;;;;;5035616;28;20450;-69
2024/01/09 05:05:19;;;;;;;2.92;1.70;;;;;;;;;;5036546;28;20169;-69
2024/01/09 05:07:46;;;;;;;5.15;2.28;;;;;;;;;;5034234;28;20492;-69
2024/01/09 05:10:12;;;;;;;2.70;1.70;;;;;;;;;;5035703;28;20059;-69
2024/01/09 05:12:38;;;;;;;5.30;2.75;;;;;;;;;;5035801;28;20121;-71
2024/01/09 05:15:05;;;;;;;5.15;3.15;;;;;;;;;;5035854;28;20053;-70
2024/01/09 05:17:31;;;;;;;4.15;2.55;;;;;;;;;;5036458;28;20033;-70
2024/01/09 05:19:57;;;;;;;3.67;2.10;;;;;;;;;;5036630;28;20338;-69
2024/01/09 05:22:23;;;;;;;3.53;1.80;;;;;;;;;;5037479;28;20036;-70
2024/01/09 05:24:49;;;;;;;6.25;3.00;;;;;;;;;;5052798;28;20044;-70
2024/01/09 05:27:15;;;;;;;5.13;2.28;;;;;;;;;;5037693;28;20193;-70
2024/01/09 05:29:41;;;;;;;5.22;2.08;;;;;;;;;;5037878;28;20507;-68
2024/01/09 05:32:07;;;;;;;3.60;2.65;;;;;;;;;;5038468;28;20175;-70
2024/01/09 05:34:33;;;;;;;5.53;3.20;;;;;;;;;;5037354;28;20318;-70
2024/01/09 05:36:59;;;;;;;4.28;2.55;;;;;;;;;;5038946;28;20694;-71
2024/01/09 05:39:26;;;;;;;3.83;2.20;;;;;;;;;;5053192;28;20052;-69
2024/01/09 05:41:52;;;;;;;4.65;2.47;;;;;;;;;;5020994;28;20424;-70
2024/01/09 05:44:18;;;;;;;5.78;3.05;;;;;;;;;;5039324;28;20056;-70
2024/01/09 05:46:45;;;;;;;6.50;2.25;;;;;;;;;;5017697;28;20575;-69
2024/01/09 05:49:11;;;;;;;2.90;1.90;;;;;;;;;;5035293;28;20082;-69
2024/01/09 05:51:37;;;;;;;4.05;2.70;;;;;;;;;;5040521;28;20049;-69
2024/01/09 05:54:03;;;;;;;5.30;2.55;;;;;;;;;;5040607;28;20043;-69
2024/01/09 05:56:29;;;;;;;4.72;2.30;;;;;;;;;;5040552;28;20048;-69
2024/01/09 05:58:55;;;;;;;4.97;2.35;;;;;;;;;;5055820;28;20048;-69
2024/01/09 06:01:21;;;;;;;3.97;2.30;;;;;;;;;;5040539;28;20268;-69
2024/01/09 06:03:48;;;;;;;4.53;2.63;;;;;;;;;;5039312;28;20051;-70
2024/01/09 06:06:14;;;;;;;4.95;2.60;;;;;;;;;;5039218;28;20358;-69
2024/01/09 06:08:41;;;;;;;3.50;2.28;;;;;;;;;;5038848;28;20040;-69
2024/01/09 06:11:07;;;;;;;4.35;2.63;;;;;;;;;;5040273;28;20033;-69
2024/01/09 06:13:33;;;;;;;5.20;2.40;;;;;;;;;;5054689;28;20609;-69
2024/01/09 06:15:59;;;;;;;4.63;2.60;;;;;;;;;;5021587;28;20179;-69
2024/01/09 06:18:26;;;;;;;4.55;2.78;;;;;;;;;;5039273;28;20496;-70
2024/01/09 06:20:52;;;;;;;8.05;2.67;;;;;;;;;;5037938;28;20231;-70
2024/01/09 06:23:18;;;;;;;4.78;3.20;;;;;;;;;;5039291;28;20348;-70
2024/01/09 06:25:45;;;;;;;4.22;2.50;;;;;;;;;;5038064;28;20064;-69
2024/01/09 06:28:11;;;;;;;4.15;2.50;;;;;;;;;;5037610;28;20502;-70
2024/01/09 06:30:37;;;;;;;5.72;3.00;;;;;;;;;;5038625;28;20245;-69
2024/01/09 06:33:03;;;;;;;4.82;2.53;;;;;;;;;;5032837;28;20404;-71
2024/01/09 06:35:29;;;;;;;4.03;2.75;;;;;;;;;;5036098;28;20208;-70
2024/01/09 06:37:55;;;;;;;4.35;2.60;;;;;;;;;;5001338;28;20060;-69
2024/01/09 06:40:23;;;;;;;4.30;2.67;;;;;;;;;;5034411;28;20051;-69
2024/01/09 06:42:50;;;;;;;4.68;2.80;;;;;;;;;;5035740;28;20045;-68
2024/01/09 06:45:17;;;;;;;4.05;2.25;;;;;;;;;;5036824;28;20307;-69
2024/01/09 06:47:44;;;;;;;5.55;2.95;;;;;;;;;;5039088;28;20181;-69
2024/01/09 06:50:10;;;;;;;4.55;2.92;;;;;;;;;;5037398;28;20377;-70
2024/01/09 06:52:38;;;;;;;5.30;2.95;;;;;;;;;;5035635;28;20041;-68
2024/01/09 06:55:04;;;;;;;7.68;3.20;;;;;;;;;;5017599;28;20206;-69
2024/01/09 06:57:31;;;;;;;5.05;2.58;;;;;;;;;;5033726;28;20508;-69
2024/01/09 06:59:57;;;;;;;3.58;2.33;;;;;;;;;;5014556;28;20108;-69
2024/01/09 07:02:23;;;;;;;5.78;2.67;;;;;;;;;;5034918;28;20052;-69
2024/01/09 07:04:49;;;;;;;6.95;2.97;;;;;;;;;;5034187;28;20052;-69
2024/01/09 07:07:15;;;;;;;6.00;3.30;;;;;;;;;;5033311;28;20319;-70
2024/01/09 07:09:41;;;;;;;8.10;2.92;;;;;;;;;;5033898;28;20416;-70
2024/01/09 07:12:09;;;;;;;6.03;2.63;;;;;;;;;;5033648;28;20053;-68
2024/01/09 07:14:38;;;;;;;4.40;2.47;;;;;;;;;;5033625;28;20296;-69
2024/01/09 07:17:04;;;;;;;4.80;3.08;;;;;;;;;;5035759;28;20053;-69
2024/01/09 07:19:31;;;;;;;3.88;2.55;;;;;;;;;;5017199;28;20330;-69
2024/01/09 07:21:57;;;;;;;7.43;3.78;;;;;;;;;;5033813;28;20133;-69
2024/01/09 07:24:23;;;;;;;5.57;3.17;;;;;;;;;;5033710;28;20071;-70
2024/01/09 07:26:49;;;;;;;5.00;2.75;;;;;;;;;;5033166;28;20176;-70
2024/01/09 07:29:17;;;;;;;4.32;2.60;;;;;;;;;;5033364;28;20524;-70
2024/01/09 07:31:44;;;;;;;5.40;3.00;;;;;;;;;;5034648;28;20283;-70
2024/01/09 07:34:10;;;;;;;5.57;2.72;;;;;;;;;;5032051;28;20055;-70
2024/01/09 07:36:36;;;;;;;5.75;3.10;;;;;;;;;;5032628;28;20112;-70
2024/01/09 07:39:02;;;;;;;5.03;2.72;;;;;;;;;;5033523;28;20097;-70
2024/01/09 07:41:29;;;;;;;4.07;2.50;;;;;;;;;;5030953;28;20645;-70
2024/01/09 07:43:55;;;;;;;4.60;2.75;;;;;;;;;;5033224;28;20059;-70
2024/01/09 07:46:21;;;;;;;5.10;3.05;;;;;;;;;;5032798;28;20045;-69
2024/01/09 07:48:47;;;;;;;8.32;2.63;;;;;;;;;;5026044;28;20472;-69
2024/01/09 07:51:13;;;;;;;5.65;2.70;;;;;;;;;;5030212;28;20139;-70
2024/01/09 07:53:39;;;;;;;4.38;2.70;;;;;;;;;;5030095;28;20112;-69
2024/01/09 07:56:13;;;;;;;5.80;3.00;;;;;;;;;;5030860;28;20222;-69
2024/01/09 07:58:39;;;;;;;4.70;2.53;;;;;;;;;;5032563;28;20417;-69
2024/01/09 08:01:05;;;;;;;5.72;3.13;;;;;;;;;;5030284;28;20752;-69
2024/01/09 08:03:32;;;;;;;5.18;2.67;;;;;;;;;;5031668;28;20056;-69
2024/01/09 08:05:58;;;;;;;4.88;2.67;;;;;;;;;;5028322;28;20136;-70
2024/01/09 08:08:24;;;;;;;7.82;3.20;;;;;;;;;;5032072;28;20302;-69
2024/01/09 08:10:50;;;;;;;6.03;2.58;;;;;;;;;;5034164;28;20197;-70
2024/01/09 08:13:16;;;;;;;4.68;3.03;;;;;;;;;;5031927;28;20041;-69
2024/01/09 08:15:42;;;;;;;5.80;3.00;;;;;;;;;;5034409;28;20630;-69
2024/01/09 08:18:08;;;;;;;4.30;2.75;;;;;;;;;;5033868;28;20497;-69
2024/01/09 08:20:35;;;;;;;4.10;2.60;;;;;;;;;;5033750;28;20045;-70
2024/01/09 08:23:01;;;;;;;8.57;2.47;;;;;;;;;;5033381;28;20207;-69
2024/01/09 08:25:28;;;;;;;5.63;2.55;;;;;;;;;;5034285;28;20326;-69
2024/01/09 08:27:54;;;;;;;4.25;3.28;;;;;;;;;;5033493;28;20040;-69
2024/01/09 08:30:20;;;;;;;5.90;2.60;;;;;;;;;;5034541;28;20536;-70
2024/01/09 08:32:46;;;;;;;5.68;2.80;;;;;;;;;;5035296;28;20519;-69
2024/01/09 08:35:12;;;;;;;4.90;2.78;;;;;;;;;;5038795;28;20616;-69
2024/01/09 08:37:38;;;;;;;5.15;2.90;;;;;;;;;;5042859;28;20044;-70
2024/01/09 08:40:06;;;;;;;6.95;2.67;;;;;;;;;;5041519;28;20087;-69
2024/01/09 08:42:32;;;;;;;4.00;2.83;;;;;;;;;;5035147;28;20235;-70
2024/01/09 08:44:58;;;;;;;4.00;2.75;;;;;;;;;;5033460;28;20049;-69
2024/01/09 08:47:24;;;;;;;7.75;3.10;;;;;;;;;;5031712;28;20040;-69
2024/01/09 08:49:51;;;;;;;3.78;2.22;;;;;;;;;;5032768;28;20238;-68
2024/01/09 08:52:21;;;;;;;5.30;2.90;;;;;;;;;;5030684;28;20682;-69
2024/01/09 08:54:47;;;;;;;4.07;2.80;;;;;;;;;;5032613;28;20558;-69
2024/01/09 08:57:14;;;;;;;5.07;2.30;;;;;;;;;;5031055;28;20964;-71
2024/01/09 08:59:40;;;;;;;6.40;2.65;;;;;;;;;;5034465;28;20435;-69
2024/01/09 09:02:06;;;;;;;7.25;2.67;;;;;;;;;;5032386;28;20048;-70
2024/01/09 09:04:32;;;;;;;4.63;2.67;;;;;;;;;;5014513;28;20045;-70
2024/01/09 09:06:59;;;;;;;5.03;3.10;;;;;;;;;;5032613;28;20167;-70
2024/01/09 09:09:25;;;;;;;5.38;2.70;;;;;;;;;;5033230;28;20081;-68
2024/01/09 09:11:51;;;;;;;8.13;3.00;;;;;;;;;;5032635;28;20097;-69
2024/01/09 09:14:17;;;;;;;3.90;2.80;;;;;;;;;;5033125;28;20515;-69
2024/01/09 09:16:43;;;;;;;9.50;3.40;;;;;;;;;;5031782;28;20041;-69
2024/01/09 09:19:09;;;;;;;3.05;2.70;;;;;;;;;;5032830;28;20263;-69
2024/01/09 09:21:36;;;;;;;5.35;2.75;;;;;;;;;;5013863;28;20211;-69
2024/01/09 09:24:02;;;;;;;6.90;3.50;;;;;;;;;;5017527;28;20215;-69
2024/01/09 09:26:29;;;;;;;4.75;2.25;;;;;;;;;;5036694;28;20044;-69
2024/01/09 09:28:55;;;;;;;6.63;3.10;;;;;;;;;;5034649;28;20041;-69
2024/01/09 09:31:21;;;;;;;4.78;2.33;;;;;;;;;;5036731;28;20281;-69
2024/01/09 09:33:48;;;;;;;4.95;2.40;;;;;;;;;;5018543;28;20512;-69
2024/01/09 09:36:14;;;;;;;3.80;2.53;;;;;;;;;;5036077;28;20041;-69
2024/01/09 09:38:40;;;;;;;4.97;2.80;;;;;;;;;;5018354;28;20642;-69
2024/01/09 09:41:06;;;;;;;5.22;2.70;;;;;;;;;;5017812;28;20408;-69
2024/01/09 09:43:35;;;;;;;4.80;2.72;;;;;;;;;;5036461;28;20040;-68
2024/01/09 09:46:02;;;;;;;4.40;2.33;;;;;;;;;;5036177;28;20225;-69
2024/01/09 09:48:29;;;;;;;5.30;2.38;;;;;;;;;;5036388;28;20163;-69
2024/01/09 09:50:55;;;;;;;3.97;2.33;;;;;;;;;;5036937;28;20429;-69
2024/01/09 09:53:24;;;;;;;3.92;2.40;;;;;;;;;;5033842;28;20040;-69
2024/01/09 09:55:51;;;;;;;4.10;2.70;;;;;;;;;;5035516;28;20066;-69
2024/01/09 09:58:17;;;;;;;4.25;2.33;;;;;;;;;;5036038;28;20397;-68
2024/01/09 10:00:44;;;;;;;7.90;2.90;;;;;;;;;;5036015;28;20631;-68
2024/01/09 10:03:11;;;;;;;5.30;2.97;;;;;;;;;;5035301;28;20049;-68
2024/01/09 10:05:41;;;;;;;5.53;2.70;;;;;;;;;;5036914;28;20181;-68
2024/01/09 10:08:12;;;;;;;5.50;3.13;;;;;;;;;;5031759;28;20063;-68
2024/01/09 10:10:38;;;;;;;4.28;2.80;;;;;;;;;;5032383;28;20144;-67
2024/01/09 10:13:04;;;;;;;3.78;2.20;;;;;;;;;;5038378;28;20408;-68
2024/01/09 10:15:30;;;;;;;3.70;2.15;;;;;;;;;;5037073;28;20117;-68
2024/01/09 10:17:59;;;;;;;4.60;2.55;;;;;;;;;;5036766;28;20036;-67
2024/01/09 10:20:28;;;;;;;3.53;2.60;;;;;;;;;;5034642;28;20083;-67
2024/01/09 10:22:55;;;;;;;5.30;3.00;;;;;;;;;;5036277;28;20079;-69
2024/01/09 10:25:21;;;;;;;5.20;3.05;;;;;;;;;;5037188;28;20061;-68
2024/01/09 10:27:48;;;;;;;5.50;3.00;;;;;;;;;;5034845;28;20063;-67
2024/01/09 10:30:14;;;;;;;5.95;3.00;;;;;;;;;;5037390;28;20114;-68
2024/01/09 10:32:40;;;;;;;4.80;2.70;;;;;;;;;;5018266;28;20052;-68
2024/01/09 10:35:07;;;;;;;4.20;2.70;;;;;;;;;;5034979;28;20064;-68
2024/01/09 10:37:34;;;;;;;4.22;2.47;;;;;;;;;;5035952;28;20142;-68
2024/01/09 10:40:00;;;;;;;4.07;2.40;;;;;;;;;;5051360;28;20120;-68
2024/01/09 10:42:30;;;;;;;3.83;2.60;;;;;;;;;;5034928;28;20055;-68
2024/01/09 10:44:59;;;;;;;5.18;2.65;;;;;;;;;;5036920;28;20158;-68
2024/01/09 10:47:27;;;;;;;6.63;2.08;;;;;;;;;;5035579;28;20777;-68
2024/01/09 10:49:54;;;;;;;3.55;2.25;;;;;;;;;;5035431;28;20667;-67
2024/01/09 10:52:20;;;;;;;5.65;2.28;;;;;;;;;;5034135;28;20328;-67
2024/01/09 10:54:47;;;;;;;4.80;2.50;;;;;;;;;;5033860;28;20044;-68
2024/01/09 10:57:14;;;;;;;4.75;2.63;;;;;;;;;;5031632;28;20095;-67
2024/01/09 10:59:41;;;;;;;4.30;2.40;;;;;;;;;;5035050;28;20037;-68
2024/01/09 11:02:15;;;;;;;5.05;2.30;;;;;;;;;;5017548;28;20410;-68
2024/01/09 11:04:43;;;;;;;4.22;2.30;;;;;;;;;;5049888;28;20102;-68
2024/01/09 11:07:16;;;;;;;5.07;2.15;;;;;;;;;;5034244;28;20251;-69
2024/01/09 11:09:42;;;;;;;;;;;;;;;;;;5018193;28;20080;-68
2024/01/09 11:12:10;;;;;;;4.47;2.38;;;;;;;;;;5034001;28;20060;-68
2024/01/09 11:14:37;;;;;;;3.75;1.95;;;;;;;;;;5036997;28;20544;-68
2024/01/09 11:17:04;;;;;;;3.75;2.35;;;;;;;;;;5036426;28;20066;-68
2024/01/09 11:19:30;;;;;;;3.03;2.00;;;;;;;;;;5035312;28;20572;-69
2024/01/09 11:21:56;;;;;;;2.95;1.98;;;;;;;;;;5050736;28;20067;-68
2024/01/09 11:24:25;;;;;;;5.88;2.42;;;;;;;;;;5036066;28;20036;-69
2024/01/09 11:27:09;;;;;;;3.70;2.55;;;;;;;;;;5034803;28;20063;-68
2024/01/09 11:29:50;;;;;;;4.57;2.30;;;;;;;;;;5032711;28;20361;-68
2024/01/09 11:32:17;;;;;;;2.45;1.77;;;;;;;;;;5035375;28;20055;-68
2024/01/09 11:34:44;;;;;;;3.40;1.95;;;;;;;;;;5032431;28;20048;-68
2024/01/09 11:37:12;;;;;;;3.03;1.50;;;;;;;;;;5035034;28;20598;-69
2024/01/09 11:39:39;;;;;;;3.72;2.10;;;;;;;;;;5036103;28;20188;-69
2024/01/09 11:42:05;;;;;;;3.13;1.50;;;;;;;;;;5033169;28;20615;-68
2024/01/09 11:44:31;;;;;;;2.65;2.00;;;;;;;;;;5032820;28;20189;-70
2024/01/09 11:46:57;;;;;;;2.42;1.60;;;;;;;;;;5032129;28;20302;-68
2024/01/09 11:49:23;;;;;;;2.03;1.48;;;;;;;;;;5034126;28;20154;-69
2024/01/09 11:51:49;;;;;;;2.22;1.40;;;;;;;;;;5033633;28;20045;-69
2024/01/09 11:54:16;;;;;;;2.90;1.73;;;;;;;;;;5032710;28;20211;-69
2024/01/09 11:56:42;;;;;;;2.90;1.90;;;;;;;;;;5036702;28;20111;-68
2024/01/09 11:59:08;;;;;;;3.80;1.98;;;;;;;;;;5002223;28;20095;-69
2024/01/09 12:01:34;;;;;;;2.65;1.80;;;;;;;;;;5036084;28;20077;-70
2024/01/09 12:04:00;;;;;;;2.70;1.90;;;;;;;;;;5036092;28;20041;-69
2024/01/09 12:06:30;;;;;;;3.30;1.95;;;;;;;;;;5033230;28;20048;-70
2024/01/09 12:08:57;;;;;;;2.00;1.52;;;;;;;;;;5036384;28;20052;-69
2024/01/09 12:11:23;;;;;;;2.85;1.45;;;;;;;;;;5035680;28;20341;-70
2024/01/09 12:13:58;;;;;;;2.20;1.30;;;;;;;;;;5036952;28;20051;-71
2024/01/09 12:16:25;;;;;;;2.63;1.58;;;;;;;;;;5036677;28;20040;-68
2024/01/09 12:18:54;;;;;;;3.55;1.52;;;;;;;;;;5034970;28;20036;-70
2024/01/09 12:21:22;;;;;;;2.55;2.03;;;;;;;;;;5035125;28;20115;-69
2024/01/09 12:23:49;;;;;;;2.63;1.33;;;;;;;;;;5036207;28;20597;-70
2024/01/09 12:26:16;;;;;;;3.47;2.08;;;;;;;;;;5036118;28;20032;-70
2024/01/09 12:28:42;;;;;;;2.25;1.73;;;;;;;;;;5036001;28;20040;-70
2024/01/09 12:31:09;;;;;;;3.38;1.70;;;;;;;;;;5037216;28;20060;-70
2024/01/09 12:33:36;;;;;;;2.65;1.85;;;;;;;;;;5036031;28;20817;-70
2024/01/09 12:36:03;;;;;;;3.08;1.92;;;;;;;;;;5035699;28;20052;-71
2024/01/09 12:38:30;;;;;;;2.70;1.77;;;;;;;;;;5036306;28;20114;-70
2024/01/09 12:41:06;;;;;;;3.50;2.13;;;;;;;;;;5036316;28;20441;-70
2024/01/09 12:43:33;;;;;;;2.80;1.90;;;;;;;;;;5036990;28;20049;-69
2024/01/09 12:46:04;;;;;;;3.45;2.53;;;;;;;;;;5034885;28;20764;-69
2024/01/09 12:48:31;;;;;;;3.70;2.25;;;;;;;;;;5033664;28;20199;-70
2024/01/09 12:51:07;;;;;;;2.72;1.88;;;;;;;;;;5036472;28;20302;-70
2024/01/09 12:53:34;;;;;;;3.22;2.03;;;;;;;;;;5034004;28;20071;-71
2024/01/09 12:56:08;;;;;;;2.72;1.88;;;;;;;;;;5035713;28;20044;-69
2024/01/09 12:58:35;;;;;;;1.95;1.55;;;;;;;;;;5032836;28;20048;-70
2024/01/09 13:01:03;;;;;;;2.45;1.67;;;;;;;;;;5035496;28;20333;-70
2024/01/09 13:03:30;;;;;;;3.17;1.67;;;;;;;;;;5034134;28;20052;-70
2024/01/09 13:05:57;;;;;;;1.83;1.33;;;;;;;;;;5035838;28;20202;-70
2024/01/09 13:08:23;;;;;;;3.42;1.70;;;;;;;;;;5035383;28;20330;-70
2024/01/09 13:10:49;;;;;;;3.08;1.90;;;;;;;;;;5035896;28;20516;-69
2024/01/09 13:13:15;;;;;;;4.57;1.98;;;;;;;;;;5036598;28;20032;-68
2024/01/09 13:15:42;;;;;;;2.40;1.35;;;;;;;;;;5032249;28;20241;-69
2024/01/09 13:18:08;;;;;;;2.00;1.10;;;;;;;;;;5037783;28;20124;-69
2024/01/09 13:20:35;;;;;;;2.33;1.70;;;;;;;;;;5036196;28;20131;-69
2024/01/09 13:23:01;;;;;;;2.55;1.42;;;;;;;;;;5034391;28;20111;-69
2024/01/09 13:25:27;;;;;;;2.45;1.33;;;;;;;;;;5036369;28;20472;-70
2024/01/09 13:27:54;;;;;;;2.05;1.35;;;;;;;;;;5036977;28;20040;-69
2024/01/09 13:30:20;;;;;;;1.95;1.27;;;;;;;;;;5036656;28;20040;-68
2024/01/09 13:32:46;;;;;;;1.65;0.98;;;;;;;;;;5037127;28;20442;-69
2024/01/09 13:35:12;;;;;;;1.45;1.00;;;;;;;;;;5027975;28;20102;-70
2024/01/09 13:37:39;;;;;;;2.45;1.30;;;;;;;;;;5034369;28;20427;-70
2024/01/09 13:40:08;;;;;;;1.35;1.17;;;;;;;;;;5015991;28;20299;-70
2024/01/09 13:42:35;;;;;;;1.85;0.90;;;;;;;;;;5035574;28;20143;-68
2024/01/09 13:45:01;;;;;;;1.55;1.20;;;;;;;;;;5036644;28;20040;-69
2024/01/09 13:47:27;;;;;;;1.55;1.10;;;;;;;;;;5036101;28;20052;-68
2024/01/09 13:49:54;;;;;;;2.75;1.42;;;;;;;;;;5035963;28;20369;-69
2024/01/09 13:52:20;;;;;;;2.30;1.15;;;;;;;;;;5035774;28;20041;-69
2024/01/09 13:54:46;;;;;;;1.20;0.95;;;;;;;;;;5054441;28;20344;-70
2024/01/09 13:57:13;;;;;;;2.45;1.35;;;;;;;;;;5038026;28;20044;-69
2024/01/09 13:59:41;;;;;;;2.03;1.40;;;;;;;;;;5037299;28;20106;-69
2024/01/09 14:02:08;;;;;;;3.15;1.48;;;;;;;;;;5036077;28;20338;-69
2024/01/09 14:04:34;;;;;;;1.73;1.00;;;;;;;;;;5034256;28;20595;-70
2024/01/09 14:07:00;;;;;;;1.45;1.00;;;;;;;;;;5034176;28;20562;-70
2024/01/09 14:09:26;;;;;;;2.00;1.40;;;;;;;;;;5034830;28;20540;-69
2024/01/09 14:11:53;;;;;;;2.13;1.35;;;;;;;;;;5037700;28;20086;-69
2024/01/09 14:14:22;;;;;;;2.58;1.20;;;;;;;;;;5038893;28;20052;-69
2024/01/09 14:16:49;;;;;;;2.58;1.30;;;;;;;;;;5039144;28;20136;-68
2024/01/09 14:19:17;;;;;;;2.42;1.05;;;;;;;;;;5036558;28;20197;-69
2024/01/09 14:21:46;;;;;;;2.13;1.25;;;;;;;;;;5038464;28;20677;-69
2024/01/09 14:24:13;;;;;;;1.85;1.30;;;;;;;;;;5036723;28;20056;-69
2024/01/09 14:26:40;;;;;;;2.38;1.52;;;;;;;;;;5039128;28;20128;-69
2024/01/09 14:29:07;;;;;;;1.92;1.10;;;;;;;;;;5037473;28;20037;-69
2024/01/09 14:31:33;;;;;;;1.73;1.25;;;;;;;;;;5039203;28;20285;-69
2024/01/09 14:33:59;;;;;;;3.00;1.67;;;;;;;;;;5038716;28;20358;-69
2024/01/09 14:36:26;;;;;;;2.20;1.27;;;;;;;;;;5040424;28;20150;-69
2024/01/09 14:38:52;;;;;;;2.20;1.75;;;;;;;;;;5038781;28;20045;-68